Time;durP1;ratioP1;P1;durP2;ratioP2;P2;SDS_P1;SDS_P2;PMS_P1;PMS_P2;Temp;Humidity;BMP_temperature;BMP_pressure;BME280_temperature;BME280_humidity;BME280_pressure;Samples;Min_cycle;Max_cycle;Signal;HPM_P1;HPM_P2
2022/10/02 00:00:36;;;;;;;0.38;0.20;;;;;;;17.88;61.57;97077.56;10514489;28;20032;-30
2022/10/02 00:05:41;;;;;;;0.40;0.22;;;;;;;17.91;61.42;97087.75;10514412;28;20099;-29
2022/10/02 00:10:53;;;;;;;0.20;0.10;;;;;;;17.89;61.66;97099.53;10521794;28;20093;-29
2022/10/02 00:15:55;;;;;;;0.32;0.20;;;;;;;17.83;61.47;97102.88;10514295;28;20409;-30
2022/10/02 00:21:04;;;;;;;0.13;0.13;;;;;;;17.96;61.38;97108.88;10514078;28;20028;-30
2022/10/02 00:26:13;;;;;;;0.30;0.20;;;;;;;18.05;61.08;97127.56;10511296;28;20040;-30
2022/10/02 00:31:29;;;;;;;0.13;0.13;;;;;;;18.03;61.17;97120.78;10517036;28;20059;-34
2022/10/02 00:36:53;;;;;;;0.10;0.10;;;;;;;17.95;61.23;97128.31;10516042;28;20606;-30
2022/10/02 00:42:31;;;;;;;0.22;0.22;;;;;;;17.95;61.34;97124.91;10512978;28;20043;-30
2022/10/02 00:47:59;;;;;;;0.20;0.15;;;;;;;17.92;61.47;97125.75;10501980;28;20047;-29
2022/10/02 00:53:18;;;;;;;0.20;0.20;;;;;;;17.92;61.30;97129.97;10515073;28;20467;-30
2022/10/02 00:58:27;;;;;;;0.80;0.30;;;;;;;17.91;61.38;97126.56;10513764;28;20093;-30
2022/10/02 01:03:43;;;;;;;0.28;0.13;;;;;;;17.89;61.57;97130.78;10512650;28;20044;-29
2022/10/02 01:08:43;;;;;;;0.10;0.10;;;;;;;17.88;61.51;97125.69;10518170;28;20772;-29
2022/10/02 01:13:44;;;;;;;0.10;0.03;;;;;;;17.87;61.48;97113.88;10514035;28;20028;-29
2022/10/02 01:18:46;;;;;;;0.28;0.28;;;;;;;17.85;61.47;97116.41;10510243;28;20124;-30
2022/10/02 01:24:13;;;;;;;0.28;0.20;;;;;;;17.99;61.14;97114.81;10511253;28;20025;-30
2022/10/02 01:29:13;;;;;;;0.27;0.10;;;;;;;18.07;60.84;97117.44;10513633;28;20028;-31
2022/10/02 01:34:14;;;;;;;0.20;0.20;;;;;;;17.95;61.20;97117.31;10513184;28;20028;-29
2022/10/02 01:39:14;;;;;;;0.15;0.13;;;;;;;17.96;61.20;97121.56;10515502;28;20028;-30
2022/10/02 01:44:15;;;;;;;0.20;0.20;;;;;;;17.93;61.39;97113.94;10509927;28;20365;-29
2022/10/02 01:49:33;;;;;;;0.30;0.10;;;;;;;17.92;61.26;97107.19;10511381;28;20522;-29
2022/10/02 01:55:09;;;;;;;0.10;0.10;;;;;;;17.91;61.34;97115.63;10512694;28;20036;-29
2022/10/02 02:00:16;;;;;;;0.30;0.20;;;;;;;17.89;61.47;97109.66;10505582;28;20491;-29
2022/10/02 02:05:30;;;;;;;0.13;0.10;;;;;;;17.82;61.21;97101.19;10506497;28;20036;-30
2022/10/02 02:10:40;;;;;;;0.10;0.10;;;;;;;17.87;61.30;97121.47;10514792;28;20047;-30
2022/10/02 02:15:56;;;;;;;0.40;0.20;;;;;;;17.89;61.30;97118.13;10508847;28;20505;-30
2022/10/02 02:21:02;;;;;;;0.20;0.15;;;;;;;17.88;61.39;97115.56;10508949;28;20032;-30
2022/10/02 02:26:07;;;;;;;0.08;0.08;;;;;;;18.02;61.04;97116.53;10508835;28;20089;-30
2022/10/02 02:31:12;;;;;;;0.10;0.10;;;;;;;17.99;60.87;97109.75;10511302;28;20479;-29
2022/10/02 02:36:18;;;;;;;0.10;0.10;;;;;;;17.92;61.20;97108.00;10511388;28;20030;-30
2022/10/02 02:41:24;;;;;;;0.10;0.10;;;;;;;17.93;61.22;97113.94;10511860;28;20047;-30
2022/10/02 02:47:05;;;;;;;0.20;0.20;;;;;;;17.92;61.09;97115.59;10509683;28;20031;-29
2022/10/02 02:52:11;;;;;;;0.30;0.20;;;;;;;17.92;61.21;97112.25;10509209;28;20045;-30
2022/10/02 02:57:13;;;;;;;0.03;0.03;;;;;;;17.91;61.21;97113.09;10502142;28;20040;-29
2022/10/02 03:02:14;;;;;;;0.10;0.10;;;;;;;17.89;61.34;97128.25;10511552;28;20074;-29
2022/10/02 03:07:16;;;;;;;0.20;0.20;;;;;;;17.86;61.59;97119.78;10502677;28;20039;-29
2022/10/02 03:12:34;;;;;;;0.17;0.17;;;;;;;17.86;61.26;97120.66;10507340;28;20312;-30
2022/10/02 03:18:00;;;;;;;0.10;0.10;;;;;;;17.86;61.45;97107.13;10508673;28;20387;-29
2022/10/02 03:23:15;;;;;;;0.35;0.10;;;;;;;17.92;61.22;97104.66;10510716;28;20437;-29
2022/10/02 03:28:37;;;;;;;0.38;0.38;;;;;;;18.03;60.82;97103.03;10507228;28;20463;-29
2022/10/02 03:33:39;;;;;;;0.17;0.13;;;;;;;17.99;60.88;97094.56;10518754;28;20485;-29
2022/10/02 03:38:41;;;;;;;0.15;0.13;;;;;;;17.83;61.34;97082.59;10518084;28;20051;-29
2022/10/02 03:43:41;;;;;;;0.17;0.17;;;;;;;17.90;61.10;97086.88;10514004;28;20051;-30
2022/10/02 03:48:42;;;;;;;0.20;0.20;;;;;;;17.89;61.23;97086.88;10517722;28;20048;-30
2022/10/02 03:53:42;;;;;;;0.10;0.10;;;;;;;17.86;61.29;97081.78;10522365;28;20028;-29
2022/10/02 03:58:47;;;;;;;0.20;0.17;;;;;;;17.87;61.18;97083.47;10501347;28;20378;-29
2022/10/02 04:03:52;;;;;;;0.38;0.10;;;;;;;17.85;61.35;97082.63;10515602;28;20171;-30
2022/10/02 04:09:00;;;;;;;0.15;0.15;;;;;;;17.80;61.40;97077.53;10508104;28;20036;-30
2022/10/02 04:14:12;;;;;;;0.20;0.20;;;;;;;17.86;61.37;97076.72;10521624;28;20506;-30
2022/10/02 04:19:21;;;;;;;0.10;0.10;;;;;;;17.86;61.45;97079.25;10512991;28;20090;-29
2022/10/02 04:24:31;;;;;;;0.15;0.15;;;;;;;17.92;61.09;97076.78;10515987;28;20056;-30
2022/10/02 04:29:37;;;;;;;0.63;0.30;;;;;;;18.01;60.86;97080.22;10519088;28;20043;-30
2022/10/02 04:34:38;;;;;;;0.28;0.10;;;;;;;17.97;60.95;97085.25;10508890;28;20036;-29
2022/10/02 04:39:49;;;;;;;0.20;0.10;;;;;;;17.90;61.03;97079.28;10522550;28;20165;-30
2022/10/02 04:45:11;;;;;;;0.50;0.10;;;;;;;17.88;61.08;97075.03;10511234;28;20031;-29
2022/10/02 04:50:29;;;;;;;0.38;0.20;;;;;;;17.89;61.19;97070.00;10513651;28;20044;-30
2022/10/02 04:56:12;;;;;;;0.10;0.10;;;;;;;17.88;61.32;97054.78;10510354;28;20365;-29
2022/10/02 05:01:41;;;;;;;0.10;0.10;;;;;;;17.86;61.21;97059.84;10511226;28;20040;-29
2022/10/02 05:07:11;;;;;;;0.10;0.10;;;;;;;17.87;61.21;97058.16;10512356;28;20669;-29
2022/10/02 05:12:42;;;;;;;0.10;0.10;;;;;;;17.83;61.18;97043.78;10494022;28;20117;-29
2022/10/02 05:18:07;;;;;;;0.10;0.10;;;;;;;17.85;61.13;97049.69;10520001;28;20036;-29
2022/10/02 05:23:22;;;;;;;0.10;0.10;;;;;;;17.83;61.25;97047.16;10508954;28;20040;-29
2022/10/02 05:28:41;;;;;;;0.20;0.20;;;;;;;17.95;60.86;97043.84;10509807;28;20036;-30
2022/10/02 05:34:06;;;;;;;0.08;0.08;;;;;;;17.98;60.75;97048.97;10517047;28;20037;-29
2022/10/02 05:39:13;;;;;;;0.13;0.13;;;;;;;17.89;61.12;97051.41;10515136;28;20036;-30
2022/10/02 05:44:19;;;;;;;;;;;;;;;17.86;61.04;97033.66;10511263;28;20028;-29
2022/10/02 05:49:36;;;;;;;0.25;0.10;;;;;;;17.84;61.03;97042.94;10513561;28;19916;-30
2022/10/02 05:55:17;;;;;;;0.30;0.20;;;;;;;17.85;61.19;97042.09;10512599;28;20025;-29
2022/10/02 06:00:42;;;;;;;0.30;0.20;;;;;;;17.87;61.06;97038.75;10509651;28;20545;-29
2022/10/02 06:06:01;;;;;;;0.03;0.03;;;;;;;17.87;61.03;97032.81;10509653;28;20516;-30
2022/10/02 06:11:15;;;;;;;0.10;0.10;;;;;;;17.83;61.09;97052.22;10511739;28;20052;-29
2022/10/02 06:16:48;;;;;;;0.15;0.10;;;;;;;17.80;61.28;97044.59;10504849;28;20035;-29
2022/10/02 06:21:53;;;;;;;0.10;0.10;;;;;;;17.78;61.41;97053.03;10516381;28;20036;-29
2022/10/02 06:27:03;;;;;;;0.30;0.20;;;;;;;17.87;61.26;97048.03;10504776;28;20028;-30
2022/10/02 06:32:12;;;;;;;0.13;0.10;;;;;;;17.94;60.79;97058.22;10515726;28;20032;-29
2022/10/02 06:37:34;;;;;;;0.10;0.10;;;;;;;17.95;60.78;97056.53;10513833;28;20035;-29
2022/10/02 06:42:51;;;;;;;0.10;0.10;;;;;;;17.88;60.94;97042.13;10504837;28;20037;-29
2022/10/02 06:47:56;;;;;;;0.00;0.00;;;;;;;17.88;61.05;97032.84;10511529;28;20043;-31
2022/10/02 06:53:25;;;;;;;0.45;0.20;;;;;;;17.87;60.98;97032.81;10507862;28;20036;-30
2022/10/02 06:58:57;;;;;;;0.10;0.10;;;;;;;17.88;61.07;97044.66;10515924;28;20024;-30
2022/10/02 07:04:17;;;;;;;0.10;0.10;;;;;;;17.85;61.05;97049.69;10515216;28;20180;-29
2022/10/02 07:09:30;;;;;;;0.40;0.20;;;;;;;17.82;61.25;97055.59;10517531;28;20032;-30
2022/10/02 07:14:46;;;;;;;0.10;0.10;;;;;;;17.80;61.08;97056.41;10516462;28;20040;-30
2022/10/02 07:20:15;;;;;;;0.17;0.10;;;;;;;17.82;61.16;97059.81;10521380;28;20012;-29
2022/10/02 07:25:43;;;;;;;0.10;0.03;;;;;;;17.80;61.07;97043.75;10502572;28;20688;-29
2022/10/02 07:30:55;;;;;;;0.13;0.13;;;;;;;17.91;60.96;97034.56;10516278;28;20642;-29
2022/10/02 07:36:04;;;;;;;0.15;0.15;;;;;;;17.97;60.65;97042.19;10517437;28;20028;-29
2022/10/02 07:41:10;;;;;;;0.10;0.10;;;;;;;17.93;60.72;97037.94;10517439;28;20073;-30
2022/10/02 07:46:28;;;;;;;0.30;0.13;;;;;;;17.87;61.13;97027.75;10515713;28;20321;-29
2022/10/02 07:51:47;;;;;;;0.10;0.10;;;;;;;17.85;60.88;97029.44;10521640;28;20070;-29
2022/10/02 07:56:49;;;;;;;0.15;0.13;;;;;;;17.83;61.17;97037.00;10508510;28;20040;-30
2022/10/02 08:01:51;;;;;;;0.03;0.03;;;;;;;17.83;60.90;97028.59;10517054;28;20115;-29
2022/10/02 08:06:58;;;;;;;0.30;0.30;;;;;;;17.82;61.10;97025.19;10506196;28;20041;-30
2022/10/02 08:12:21;;;;;;;0.08;0.05;;;;;;;17.82;61.22;97014.22;10516049;28;20025;-30
2022/10/02 08:17:22;;;;;;;0.10;0.10;;;;;;;17.80;61.07;97016.75;10513284;28;20146;-29
2022/10/02 08:22:33;;;;;;;0.10;0.10;;;;;;;17.80;61.17;97015.88;10517431;28;20139;-29
2022/10/02 08:28:15;;;;;;;0.10;0.10;;;;;;;17.81;61.19;97022.63;10509908;28;20126;-30
2022/10/02 08:33:21;;;;;;;0.20;0.20;;;;;;;17.96;60.55;97017.69;10511538;28;20041;-30
2022/10/02 08:38:33;;;;;;;0.17;0.07;;;;;;;17.98;60.50;97019.41;10509216;28;20032;-31
2022/10/02 08:43:55;;;;;;;0.10;0.10;;;;;;;17.91;60.77;97004.16;10510383;28;20071;-29
2022/10/02 08:49:27;;;;;;;0.10;0.10;;;;;;;17.87;61.06;97012.56;10513486;28;20024;-30
2022/10/02 08:54:58;;;;;;;0.20;0.20;;;;;;;17.85;61.08;97010.03;10512324;28;20467;-31
2022/10/02 09:00:43;;;;;;;0.20;0.10;;;;;;;17.85;60.94;97020.16;10505856;28;20563;-29
2022/10/02 09:05:53;;;;;;;0.93;0.33;;;;;;;17.84;61.13;97031.09;10436500;28;1076162;-30
2022/10/02 09:11:13;;;;;;;0.03;0.03;;;;;;;17.83;61.24;97031.13;10515871;28;20036;-30
2022/10/02 09:16:38;;;;;;;0.10;0.10;;;;;;;17.81;61.34;97032.78;10513401;28;20035;-30
2022/10/02 09:21:44;;;;;;;0.35;0.20;;;;;;;17.82;61.12;97024.38;10523702;28;20032;-30
2022/10/02 09:26:55;;;;;;;0.10;0.10;;;;;;;17.80;61.17;97024.34;10502950;28;20040;-30
2022/10/02 09:32:23;;;;;;;0.00;0.00;;;;;;;17.84;60.99;97020.16;10515905;28;20038;-30
2022/10/02 09:37:52;;;;;;;0.00;0.00;;;;;;;17.95;60.94;97026.13;10518935;28;20031;-30
2022/10/02 09:42:55;;;;;;;0.10;0.10;;;;;;;17.95;60.87;97027.00;10510308;28;20047;-30
2022/10/02 09:48:14;;;;;;;0.15;0.15;;;;;;;17.87;61.00;97032.81;10510936;28;20033;-30
2022/10/02 09:53:35;;;;;;;0.77;0.55;;;;;;;17.87;61.17;97048.03;10510597;28;20021;-30
2022/10/02 09:58:55;;;;;;;0.10;0.10;;;;;;;17.84;61.07;97038.72;10513133;28;20073;-30
2022/10/02 10:03:58;;;;;;;0.25;0.10;;;;;;;17.83;61.21;97037.00;10504009;28;20090;-29
2022/10/02 10:09:34;;;;;;;0.20;0.10;;;;;;;17.82;61.30;97040.38;10517442;28;20400;-30
2022/10/02 10:14:55;;;;;;;0.20;0.17;;;;;;;17.84;61.19;97042.94;10515119;28;20101;-30
2022/10/02 10:20:35;;;;;;;0.30;0.10;;;;;;;17.81;61.31;97043.75;10508425;28;20040;-29
2022/10/02 10:25:49;;;;;;;0.40;0.13;;;;;;;17.82;61.27;97034.50;10509214;28;20044;-31
2022/10/02 10:30:55;;;;;;;0.20;0.20;;;;;;;17.79;61.21;97029.38;10508800;28;20111;-30
2022/10/02 10:42:27;;;;;;;0.20;0.10;;;;;;;17.95;60.91;97021.91;10508218;28;20147;-29
2022/10/02 10:47:47;;;;;;;0.20;0.10;;;;;;;17.91;60.93;97022.72;10513079;28;20376;-29
2022/10/02 10:53:02;;;;;;;0.00;0.00;;;;;;;17.84;61.08;97004.94;10510247;28;20028;-30
2022/10/02 10:58:20;;;;;;;0.10;0.10;;;;;;;17.84;61.25;97002.41;10513036;28;20104;-30
2022/10/02 11:03:43;;;;;;;0.10;0.10;;;;;;;17.85;61.26;97006.66;10509597;28;20396;-30
2022/10/02 11:09:03;;;;;;;0.10;0.10;;;;;;;17.84;61.25;97012.56;10505196;28;20035;-30
2022/10/02 11:14:41;;;;;;;0.20;0.20;;;;;;;17.83;61.02;97013.38;10511910;28;20037;-28
2022/10/02 11:20:05;;;;;;;0.20;0.10;;;;;;;17.81;61.37;96998.19;10519308;28;20036;-30
2022/10/02 11:25:27;;;;;;;0.15;0.15;;;;;;;17.80;61.20;96995.63;10503829;28;20028;-32
2022/10/02 11:30:37;;;;;;;0.00;0.00;;;;;;;17.83;61.24;96965.28;10509397;28;20418;-30
2022/10/02 11:35:56;;;;;;;0.17;0.10;;;;;;;17.85;61.16;96977.13;10513529;28;20150;-30
2022/10/02 11:41:22;;;;;;;0.10;0.08;;;;;;;17.94;60.79;96974.63;10508300;28;20036;-30
2022/10/02 11:46:38;;;;;;;0.00;0.00;;;;;;;17.96;60.61;96961.97;10505937;28;20077;-30
2022/10/02 11:52:20;;;;;;;0.40;0.28;;;;;;;17.91;60.96;96968.69;10508224;28;20146;-29
2022/10/02 11:58:05;;;;;;;0.15;0.08;;;;;;;17.87;61.09;96982.16;10517137;28;20028;-29
2022/10/02 12:03:35;;;;;;;0.00;0.00;;;;;;;17.85;61.19;96983.84;10497456;28;20128;-30
2022/10/02 12:08:54;;;;;;;0.08;0.00;;;;;;;17.86;61.08;96963.59;10500525;28;20043;-30
2022/10/02 12:14:00;;;;;;;0.32;0.10;;;;;;;17.83;61.22;96952.59;10516657;28;20548;-30
2022/10/02 12:19:17;;;;;;;0.00;0.00;;;;;;;17.85;61.20;96948.38;10518218;28;20028;-29
2022/10/02 12:30:01;;;;;;;0.03;0.03;;;;;;;17.84;61.35;96931.50;10513149;28;20119;-30
2022/10/02 12:35:22;;;;;;;0.20;0.10;;;;;;;17.84;61.39;96927.28;10516131;28;20130;-30
2022/10/02 12:40:31;;;;;;;0.20;0.10;;;;;;;17.90;61.31;96936.63;10514585;28;20495;-30
2022/10/02 12:46:12;;;;;;;0.13;0.10;;;;;;;17.95;61.12;96922.28;10513369;28;20040;-29
2022/10/02 12:51:31;;;;;;;0.03;0.03;;;;;;;17.94;60.90;96898.66;10518591;28;20040;-29
2022/10/02 12:56:49;;;;;;;0.00;0.00;;;;;;;17.89;61.20;96912.97;10518890;28;20128;-30
2022/10/02 13:02:28;;;;;;;0.10;0.10;;;;;;;17.88;61.27;96898.59;10512715;28;20058;-30
2022/10/02 13:08:00;;;;;;;0.20;0.10;;;;;;;17.86;61.43;96912.09;10512198;28;20040;-29
2022/10/02 13:13:19;;;;;;;0.10;0.10;;;;;;;17.86;61.55;96922.22;10515173;28;20034;-29
2022/10/02 13:18:55;;;;;;;0.10;0.10;;;;;;;17.87;61.40;96913.78;10511426;28;20153;-29
2022/10/02 13:24:18;;;;;;;0.10;0.10;;;;;;;17.85;61.38;96908.72;10505221;28;20086;-29
2022/10/02 13:29:45;;;;;;;0.00;0.00;;;;;;;17.84;61.42;96926.44;10513717;28;20036;-29
2022/10/02 13:34:49;;;;;;;0.15;0.10;;;;;;;17.85;61.36;96920.53;10505021;28;20109;-29
2022/10/02 13:40:17;;;;;;;0.10;0.10;;;;;;;17.83;61.49;96934.88;10513597;28;20040;-29
2022/10/02 13:45:54;;;;;;;0.10;0.10;;;;;;;17.93;61.13;96944.22;10511570;28;20032;-30
2022/10/02 13:51:04;;;;;;;0.10;0.10;;;;;;;17.95;61.17;96934.94;10449837;28;20131;-29
2022/10/02 13:56:43;;;;;;;0.00;0.00;;;;;;;17.92;61.29;96927.34;10511540;28;20270;-29
2022/10/02 14:01:54;;;;;;;0.13;0.10;;;;;;;17.89;61.34;96938.28;10455904;28;20048;-29
2022/10/02 14:07:04;;;;;;;0.90;0.10;;;;;;;17.89;61.42;96930.69;10511712;28;20054;-30
2022/10/02 14:12:26;;;;;;;0.10;0.10;;;;;;;17.87;61.56;96934.03;10506241;28;20060;-30
2022/10/02 14:18:18;;;;;;;0.10;0.05;;;;;;;17.87;61.46;96936.56;10510492;28;20026;-29
2022/10/02 14:23:39;;;;;;;0.08;0.08;;;;;;;17.86;61.59;96950.09;10458859;28;20453;-31
2022/10/02 14:28:58;;;;;;;0.22;0.00;;;;;;;17.86;61.61;96962.75;10509531;28;20024;-29
2022/10/02 14:34:37;;;;;;;0.00;0.00;;;;;;;17.86;61.69;96980.47;10510694;28;20545;-30
2022/10/02 14:39:40;;;;;;;0.08;0.03;;;;;;;17.85;61.62;96999.03;10515934;28;20032;-30
2022/10/02 14:44:56;;;;;;;0.10;0.10;;;;;;;17.88;61.64;97002.44;10514352;28;20031;-29
2022/10/02 14:50:32;;;;;;;0.00;0.00;;;;;;;17.96;61.30;97002.50;10509439;28;20032;-32
2022/10/02 14:55:48;;;;;;;0.10;0.10;;;;;;;17.95;61.47;97003.31;10509178;28;20028;-29
2022/10/02 15:01:16;;;;;;;0.10;0.10;;;;;;;17.91;61.44;96991.50;10511933;28;20415;-29
2022/10/02 15:06:31;;;;;;;0.20;0.10;;;;;;;17.89;61.53;97005.81;10510041;28;20059;-30
2022/10/02 15:11:34;;;;;;;0.45;0.10;;;;;;;17.88;61.52;97019.31;10507835;28;20448;-30
2022/10/02 15:22:23;;;;;;;0.10;0.00;;;;;;;17.86;61.54;97010.88;10510994;28;20028;-29
2022/10/02 15:27:45;;;;;;;0.00;0.00;;;;;;;17.86;61.63;97018.47;10512785;28;20479;-29
2022/10/02 15:32:59;;;;;;;0.10;0.10;;;;;;;17.84;61.52;96995.66;10524397;28;20131;-29
2022/10/02 15:38:20;;;;;;;0.13;0.10;;;;;;;17.85;61.80;97006.66;10515911;28;20056;-30
2022/10/02 15:43:54;;;;;;;0.22;0.10;;;;;;;17.83;61.53;96995.66;10513087;28;20028;-31
2022/10/02 15:49:18;;;;;;;0.03;0.03;;;;;;;17.89;61.53;97000.75;10518046;28;20032;-29
2022/10/02 15:54:51;;;;;;;0.00;0.00;;;;;;;17.95;61.47;97000.78;10516679;28;20047;-29
2022/10/02 16:00:08;;;;;;;0.15;0.10;;;;;;;17.94;61.45;97014.31;10505553;28;20090;-30
2022/10/02 16:05:37;;;;;;;0.10;0.10;;;;;;;17.88;61.70;97020.19;10514600;28;20040;-29
2022/10/02 16:11:11;;;;;;;0.00;0.00;;;;;;;17.87;61.62;97022.69;10519319;28;20035;-29
2022/10/02 16:16:30;;;;;;;0.20;0.13;;;;;;;17.87;61.46;97027.75;10515317;28;20439;-30
2022/10/02 16:21:49;;;;;;;0.20;0.00;;;;;;;17.86;61.47;97026.06;10519701;28;20500;-30
2022/10/02 16:27:18;;;;;;;0.10;0.10;;;;;;;17.85;61.80;97034.50;10508086;28;20384;-30
2022/10/02 16:32:33;;;;;;;0.00;0.00;;;;;;;17.83;61.74;97031.94;10519751;28;20036;-30
2022/10/02 16:37:45;;;;;;;0.00;0.00;;;;;;;17.83;61.73;97031.13;10515945;28;20032;-30
2022/10/02 16:42:52;;;;;;;0.00;0.00;;;;;;;17.80;61.78;97026.88;10513956;28;20115;-29
2022/10/02 16:48:05;;;;;;;0.10;0.10;;;;;;;17.82;61.89;97029.44;10515234;28;20024;-31
2022/10/02 16:53:13;;;;;;;0.10;0.00;;;;;;;17.85;61.78;97037.03;10513654;28;20155;-30
2022/10/02 16:58:23;;;;;;;0.20;0.00;;;;;;;17.92;61.64;97048.91;10506186;28;20028;-29
2022/10/02 17:03:43;;;;;;;0.10;0.10;;;;;;;17.94;61.27;97032.03;10509117;28;20399;-30
2022/10/02 17:08:52;;;;;;;0.00;0.00;;;;;;;17.89;61.59;97049.75;10506463;28;20485;-29
2022/10/02 17:14:02;;;;;;;0.10;0.10;;;;;;;17.86;61.55;97049.72;10516838;28;20032;-30
2022/10/02 17:19:39;;;;;;;0.08;0.00;;;;;;;17.86;61.63;97048.88;10511531;28;20044;-30
2022/10/02 17:24:48;;;;;;;0.00;0.00;;;;;;;17.84;61.50;97050.53;10472726;28;20039;-30
2022/10/02 17:29:57;;;;;;;0.20;0.00;;;;;;;17.80;61.71;97039.53;10511513;28;20042;-29
2022/10/02 17:34:58;;;;;;;0.10;0.10;;;;;;;17.81;61.75;97047.97;10504356;28;20032;-29
2022/10/02 17:40:23;;;;;;;0.00;0.00;;;;;;;17.79;61.76;97040.38;10513468;28;20032;-29
2022/10/02 17:45:43;;;;;;;0.20;0.10;;;;;;;17.81;61.86;97040.38;10507685;28;20056;-29
2022/10/02 17:50:49;;;;;;;0.00;0.00;;;;;;;17.82;61.93;97040.38;10505482;28;20028;-29
2022/10/02 17:56:36;;;;;;;0.13;0.10;;;;;;;17.84;61.63;97058.97;10503366;28;20024;-32
2022/10/02 18:01:55;;;;;;;0.00;0.00;;;;;;;17.90;61.49;97055.66;10513759;28;20047;-29
2022/10/02 18:07:37;;;;;;;0.00;0.00;;;;;;;17.93;61.36;97043.84;10505671;28;20024;-29
2022/10/02 18:13:01;;;;;;;0.00;0.00;;;;;;;17.85;61.52;97039.56;10513982;28;20028;-29
2022/10/02 18:18:21;;;;;;;0.00;0.00;;;;;;;17.82;61.68;97055.59;10514694;28;20093;-29
2022/10/02 18:23:43;;;;;;;0.00;0.00;;;;;;;17.84;61.46;97048.00;10513298;28;20048;-29
2022/10/02 18:28:50;;;;;;;0.00;0.00;;;;;;;17.84;61.51;97058.13;10509337;28;20036;-29
2022/10/02 18:34:05;;;;;;;;;;;;;;;17.81;61.63;97063.16;10509382;28;20532;-29
2022/10/02 18:39:24;;;;;;;0.10;0.10;;;;;;;17.80;61.59;97076.66;10507853;28;20486;-30
2022/10/02 18:44:56;;;;;;;0.00;0.00;;;;;;;17.81;61.65;97079.22;10508203;28;20034;-29
2022/10/02 18:50:22;;;;;;;0.20;0.00;;;;;;;17.81;61.65;97085.94;10467636;28;20163;-31
2022/10/02 18:55:49;;;;;;;0.00;0.00;;;;;;;17.82;61.73;97120.59;10478240;28;20123;-30
2022/10/02 19:00:58;;;;;;;0.10;0.10;;;;;;;17.87;61.55;97144.28;10522601;28;20028;-29
2022/10/02 19:06:16;;;;;;;0.00;0.00;;;;;;;17.89;61.44;97152.72;10518302;28;20029;-29
2022/10/02 19:11:17;;;;;;;0.10;0.10;;;;;;;17.90;61.54;97149.38;10517820;28;20037;-29
2022/10/02 19:16:25;;;;;;;0.10;0.10;;;;;;;17.86;61.53;97130.78;10517860;28;20058;-30
2022/10/02 19:21:26;;;;;;;0.00;0.00;;;;;;;17.83;61.72;97133.25;10521239;28;20037;-30
2022/10/02 19:26:32;;;;;;;0.43;0.30;;;;;;;17.82;61.61;97156.06;10512097;28;20036;-29
2022/10/02 19:31:40;;;;;;;0.20;0.00;;;;;;;17.82;61.58;97222.75;10522823;28;20281;-30
2022/10/02 19:36:50;;;;;;;0.17;0.10;;;;;;;17.81;61.66;97205.00;10518742;28;20062;-29
2022/10/02 19:41:54;;;;;;;0.10;0.10;;;;;;;17.80;61.62;97193.16;10515598;28;20033;-31
2022/10/02 19:46:57;;;;;;;0.10;0.00;;;;;;;17.81;61.67;97220.19;10517109;28;20115;-29
2022/10/02 19:51:58;;;;;;;0.35;0.10;;;;;;;17.80;61.81;97208.34;10515917;28;20028;-29
2022/10/02 19:57:23;;;;;;;0.03;0.00;;;;;;;17.80;61.61;97213.44;10516587;28;20032;-30
2022/10/02 20:02:38;;;;;;;0.00;0.00;;;;;;;17.80;61.63;97205.81;10517848;28;20784;-29
2022/10/02 20:07:40;;;;;;;0.20;0.10;;;;;;;17.88;61.52;97212.69;10511874;28;20028;-30
2022/10/02 20:13:04;;;;;;;0.10;0.10;;;;;;;17.90;61.31;97221.13;10514057;28;20023;-29
2022/10/02 20:18:06;;;;;;;0.10;0.10;;;;;;;17.89;61.44;97233.78;10518018;28;20392;-30
2022/10/02 20:23:15;;;;;;;0.10;0.10;;;;;;;17.82;61.59;97232.03;10518275;28;20426;-29
2022/10/02 20:28:28;;;;;;;0.10;0.10;;;;;;;17.77;61.66;97244.66;10509298;28;20042;-30
2022/10/02 20:33:44;;;;;;;0.20;0.10;;;;;;;17.82;61.61;97258.19;10518803;28;20036;-30
2022/10/02 20:38:58;;;;;;;0.10;0.00;;;;;;;17.82;61.60;97272.56;10513471;28;20141;-29
2022/10/02 20:44:03;;;;;;;0.10;0.10;;;;;;;17.80;61.72;97289.41;10505206;28;20071;-30
2022/10/02 20:49:32;;;;;;;0.10;0.10;;;;;;;17.81;61.69;97296.16;10516873;28;20507;-31
2022/10/02 20:54:39;;;;;;;0.10;0.10;;;;;;;17.79;61.73;97307.97;10515210;28;20516;-29
2022/10/02 20:59:59;;;;;;;0.10;0.10;;;;;;;17.79;61.65;97313.03;10507040;28;20634;-30
2022/10/02 21:05:30;;;;;;;0.10;0.10;;;;;;;17.79;61.73;97323.16;10511844;28;20039;-29
2022/10/02 21:11:05;;;;;;;0.10;0.05;;;;;;;17.86;61.43;97330.00;10512513;28;20051;-30
2022/10/02 21:16:14;;;;;;;0.00;0.00;;;;;;;17.89;61.36;97335.09;10516786;28;20028;-30
2022/10/02 21:21:49;;;;;;;0.03;0.00;;;;;;;17.87;61.41;97332.56;10514146;28;20058;-29
2022/10/02 21:27:01;;;;;;;0.10;0.10;;;;;;;17.83;61.56;97345.19;10505750;28;20372;-31
2022/10/02 21:32:29;;;;;;;0.10;0.10;;;;;;;17.79;61.55;97331.63;10517898;28;20645;-30
2022/10/02 21:38:04;;;;;;;0.17;0.10;;;;;;;17.80;61.59;97342.59;10512290;28;20025;-30
2022/10/02 21:43:26;;;;;;;0.10;0.10;;;;;;;17.77;61.61;97345.97;10506777;28;20036;-30
2022/10/02 21:48:53;;;;;;;0.10;0.03;;;;;;;17.77;61.56;97350.16;10514627;28;20111;-29
2022/10/02 21:54:30;;;;;;;0.13;0.10;;;;;;;17.78;61.71;97349.31;10511632;28;20081;-30
2022/10/02 21:59:56;;;;;;;0.10;0.10;;;;;;;17.75;61.79;97351.84;10513401;28;20377;-31
2022/10/02 22:05:28;;;;;;;0.10;0.10;;;;;;;17.76;61.63;97368.72;10511029;28;20048;-30
2022/10/02 22:10:46;;;;;;;0.00;0.00;;;;;;;17.75;61.76;97370.41;10510099;28;20052;-29
2022/10/02 22:15:55;;;;;;;0.17;0.10;;;;;;;17.81;61.57;97373.03;10510029;28;20081;-29
2022/10/02 22:21:24;;;;;;;0.25;0.10;;;;;;;17.85;61.56;97378.97;10512625;28;20112;-29
2022/10/02 22:26:38;;;;;;;0.03;0.03;;;;;;;17.83;61.36;97376.41;10504206;28;20033;-30
2022/10/02 22:31:46;;;;;;;0.10;0.10;;;;;;;17.81;61.45;97382.28;10515686;28;20077;-29
2022/10/02 22:36:57;;;;;;;0.30;0.20;;;;;;;17.76;61.58;97376.31;10511184;28;20107;-30
2022/10/02 22:42:23;;;;;;;0.08;0.08;;;;;;;17.73;61.42;97368.69;10508936;28;20071;-29
2022/10/02 22:47:41;;;;;;;0.10;0.10;;;;;;;17.78;61.56;97379.72;10513082;28;20035;-30
2022/10/02 22:53:02;;;;;;;0.20;0.20;;;;;;;17.73;61.43;97366.16;10509629;28;20206;-29
2022/10/02 22:58:05;;;;;;;0.20;0.13;;;;;;;17.76;61.72;97373.78;10512635;28;20036;-29
2022/10/02 23:03:24;;;;;;;0.10;0.10;;;;;;;17.75;61.60;97384.75;10508024;28;20072;-30
2022/10/02 23:08:36;;;;;;;0.00;0.00;;;;;;;17.75;61.61;97382.22;10513329;28;20039;-30
2022/10/02 23:13:51;;;;;;;0.00;0.00;;;;;;;17.72;61.68;97387.22;10506909;28;20039;-30
2022/10/02 23:19:01;;;;;;;0.10;0.10;;;;;;;17.75;61.51;97377.16;10511603;28;20032;-30
2022/10/02 23:24:11;;;;;;;0.00;0.00;;;;;;;17.85;61.25;97378.97;10511518;28;20120;-30
2022/10/02 23:29:17;;;;;;;0.20;0.10;;;;;;;17.88;61.18;97373.94;10509548;28;20570;-30
2022/10/02 23:34:43;;;;;;;0.10;0.08;;;;;;;17.82;61.53;97363.75;10511599;28;20024;-29
2022/10/02 23:40:08;;;;;;;0.10;0.10;;;;;;;17.79;61.59;97371.28;10511133;28;20031;-30
2022/10/02 23:45:19;;;;;;;0.17;0.10;;;;;;;17.75;61.65;97382.22;10506132;28;20564;-29
2022/10/02 23:50:57;;;;;;;0.10;0.08;;;;;;;17.74;61.69;97386.44;10517193;28;20128;-30
2022/10/02 23:56:23;;;;;;;0.10;0.08;;;;;;;17.72;61.77;97389.75;10499082;28;20040;-29
